Terminal Aerodrome Forecast
Issued by NWS Tulsa, OK

Home | Current Version | Previous Version | Text Only | Print | Product List | Glossary On
Versions: 1 2 3 4 5 6 7 8 9 10 11 12 13 14 15 16
369
FTUS44 KTSA 180523
TAFTUL
TAF
KTUL 180523Z 1806/1906 10003KT P6SM BKN160
     FM181000 12003KT P6SM OVC040
     FM181500 15005KT P6SM BKN025
     FM190000 16006KT P6SM BKN015=

USA.gov is the U.S. government's official web portal to all federal, state and local government web resources and services.